createdAt,value
2019-04-05T00:01:04.828Z,1009.00
2019-04-05T00:01:54.421Z,1009.03
2019-04-05T00:02:54.412Z,1008.96
2019-04-05T00:03:54.402Z,1008.99
2019-04-05T00:04:54.392Z,1009.01
2019-04-05T00:05:54.387Z,1009.03
2019-04-05T00:06:54.406Z,1009.00
2019-04-05T00:07:54.357Z,1009.03
2019-04-05T00:08:54.351Z,1009.02
2019-04-05T00:09:54.342Z,1009.03
2019-04-05T00:10:54.331Z,1009.03
2019-04-05T00:11:54.316Z,1009.03
2019-04-05T00:12:54.314Z,1009.05
2019-04-05T00:13:54.297Z,1009.03
2019-04-05T00:14:54.282Z,1009.09
2019-04-05T00:15:54.285Z,1009.06
2019-04-05T00:16:54.263Z,1009.08
2019-04-05T00:17:54.269Z,1009.10
2019-04-05T00:18:54.284Z,1009.10
2019-04-05T00:19:54.236Z,1009.06
2019-04-05T00:20:54.218Z,1009.04
2019-04-05T00:21:54.219Z,1009.02
2019-04-05T00:22:54.203Z,1009.01
2019-04-05T00:23:54.186Z,1009.04
2019-04-05T00:24:54.186Z,1009.03
2019-04-05T00:25:54.170Z,1009.04
2019-04-05T00:26:54.155Z,1009.00
2019-04-05T00:27:54.146Z,1008.96
2019-04-05T00:28:54.186Z,1008.99
2019-04-05T00:29:54.134Z,1009.03
2019-04-05T00:30:54.118Z,1008.97
2019-04-05T00:32:04.365Z,1009.00
2019-04-05T00:32:54.089Z,1009.01
2019-04-05T00:33:54.088Z,1008.97
2019-04-05T00:34:54.085Z,1008.97
2019-04-05T00:35:54.066Z,1008.97
2019-04-05T00:36:54.056Z,1009.02
2019-04-05T00:37:54.044Z,1008.98
2019-04-05T00:38:54.034Z,1009.00
2019-04-05T00:39:54.027Z,1008.98
2019-04-05T00:40:54.031Z,1009.00
2019-04-05T00:41:53.998Z,1009.01
2019-04-05T00:42:53.989Z,1009.00
2019-04-05T00:43:53.979Z,1009.01
2019-04-05T00:44:53.971Z,1008.99
2019-04-05T00:45:53.954Z,1009.04
2019-04-05T00:46:53.962Z,1008.99
2019-04-05T00:47:53.935Z,1009.05
2019-04-05T00:48:53.930Z,1009.04
2019-04-05T00:49:53.912Z,1009.02
2019-04-05T00:50:53.908Z,1009.03
2019-04-05T00:51:53.899Z,1009.04
2019-04-05T00:52:53.921Z,1008.98
2019-04-05T00:53:53.875Z,1009.03
2019-04-05T00:54:53.862Z,1008.99
2019-04-05T00:55:53.850Z,1009.08
2019-04-05T00:56:53.839Z,1009.09
2019-04-05T00:57:53.828Z,1009.09
2019-04-05T00:58:53.826Z,1009.10
2019-04-05T00:59:53.812Z,1009.06
2019-04-05T01:00:53.798Z,1009.05
2019-04-05T01:01:53.794Z,1009.08
2019-04-05T01:03:04.379Z,1009.13
2019-04-05T01:03:53.768Z,1009.09
2019-04-05T01:04:53.752Z,1009.08
2019-04-05T01:05:53.743Z,1009.07
2019-04-05T01:06:53.737Z,1009.04
2019-04-05T01:07:53.731Z,1009.06
2019-04-05T01:08:53.722Z,1009.07
2019-04-05T01:09:53.740Z,1009.12
2019-04-05T01:10:53.694Z,1009.07
2019-04-05T01:11:53.682Z,1009.09
2019-04-05T01:12:53.674Z,1009.10
2019-04-05T01:13:53.664Z,1009.11
2019-04-05T01:14:53.650Z,1009.12
2019-04-05T01:15:53.679Z,1009.14
2019-04-05T01:16:53.629Z,1009.17
2019-04-05T01:17:53.626Z,1009.18
2019-04-05T01:18:53.603Z,1009.18
2019-04-05T01:19:53.599Z,1009.14
2019-04-05T01:20:53.590Z,1009.14
2019-04-05T01:21:53.585Z,1009.15
2019-04-05T01:22:53.561Z,1009.11
2019-04-05T01:23:53.559Z,1009.14
2019-04-05T01:24:53.545Z,1009.14
2019-04-05T01:25:53.531Z,1009.09
2019-04-05T01:26:53.563Z,1009.12
2019-04-05T01:27:53.515Z,1009.14
2019-04-05T01:28:53.508Z,1009.09
2019-04-05T01:29:53.492Z,1009.13
2019-04-05T01:30:53.480Z,1009.05
2019-04-05T01:31:53.467Z,1009.08
2019-04-05T01:32:53.493Z,1009.10
2019-04-05T01:34:05.519Z,1009.06
2019-04-05T01:34:53.445Z,1009.13
2019-04-05T01:35:53.430Z,1009.14
2019-04-05T01:36:53.420Z,1009.14
2019-04-05T01:37:53.410Z,1009.11
2019-04-05T01:38:53.470Z,1009.13
2019-04-05T01:39:53.383Z,1009.13
2019-04-05T01:40:53.377Z,1009.15
2019-04-05T01:41:53.362Z,1009.11
2019-04-05T01:42:53.352Z,1009.13
2019-04-05T01:43:53.342Z,1009.14
2019-04-05T01:44:53.352Z,1009.08
2019-04-05T01:45:54.265Z,1009.11
2019-04-05T01:46:53.313Z,1009.08
2019-04-05T01:47:53.299Z,1009.08
2019-04-05T01:48:53.293Z,1009.08
2019-04-05T01:49:53.276Z,1009.06
2019-04-05T01:50:53.276Z,1009.07
2019-04-05T01:51:53.257Z,1009.08
2019-04-05T01:52:53.246Z,1009.10
2019-04-05T01:53:53.239Z,1009.09
2019-04-05T01:54:53.233Z,1009.06
2019-04-05T01:55:53.227Z,1009.09
2019-04-05T01:56:53.203Z,1009.07
2019-04-05T01:57:53.190Z,1009.08
2019-04-05T01:58:53.181Z,1009.10
2019-04-05T01:59:53.175Z,1009.10
2019-04-05T02:00:53.179Z,1009.11
2019-04-05T02:01:53.171Z,1009.08
2019-04-05T02:02:53.143Z,1009.08
2019-04-05T02:03:53.131Z,1009.12
2019-04-05T02:05:03.159Z,1009.12
2019-04-05T02:05:53.113Z,1009.09
2019-04-05T02:06:53.116Z,1009.11
2019-04-05T02:07:53.091Z,1009.07
2019-04-05T02:08:53.081Z,1009.14
2019-04-05T02:09:53.069Z,1009.06
2019-04-05T02:10:53.055Z,1009.15
2019-04-05T02:11:53.046Z,1009.13
2019-04-05T02:12:53.075Z,1009.08
2019-04-05T02:13:53.025Z,1009.06
2019-04-05T02:14:53.020Z,1009.10
2019-04-05T02:16:05.332Z,1009.09
2019-04-05T02:16:53.990Z,1009.07
2019-04-05T02:17:52.987Z,1009.07
2019-04-05T02:18:52.979Z,1009.09
2019-04-05T02:19:52.962Z,1009.07
2019-04-05T02:20:52.950Z,1009.07
2019-04-05T02:21:52.937Z,1009.05
2019-04-05T02:22:52.928Z,1009.08
2019-04-05T02:23:52.955Z,1009.07
2019-04-05T02:24:52.906Z,1009.06
2019-04-05T02:25:52.903Z,1009.01
2019-04-05T02:26:52.883Z,1009.06
2019-04-05T02:27:52.871Z,1009.03
2019-04-05T02:28:52.867Z,1009.07
2019-04-05T02:29:52.865Z,1009.07
2019-04-05T02:30:52.870Z,1009.03
2019-04-05T02:31:52.844Z,1009.07
2019-04-05T02:32:52.821Z,1009.05
2019-04-05T02:33:52.815Z,1009.06
2019-04-05T02:34:52.804Z,1009.08
2019-04-05T02:36:03.405Z,1009.10
2019-04-05T02:36:52.781Z,1009.04
2019-04-05T02:37:52.774Z,1009.06
2019-04-05T02:38:52.759Z,1009.11
2019-04-05T02:39:52.759Z,1009.13
2019-04-05T02:40:52.756Z,1009.13
2019-04-05T02:41:52.733Z,1009.13
2019-04-05T02:42:52.715Z,1009.11
2019-04-05T02:43:52.719Z,1009.11
2019-04-05T02:44:52.698Z,1009.18
2019-04-05T02:45:52.847Z,1009.13
2019-04-05T02:46:52.691Z,1009.12
2019-04-05T02:47:52.671Z,1009.14
2019-04-05T02:48:52.651Z,1009.11
2019-04-05T02:49:52.645Z,1009.14
2019-04-05T02:50:52.631Z,1009.12
2019-04-05T02:51:52.679Z,1009.15
2019-04-05T02:52:52.618Z,1009.17
2019-04-05T02:53:52.606Z,1009.16
2019-04-05T02:54:52.594Z,1009.21
2019-04-05T02:55:52.660Z,1009.20
2019-04-05T02:56:52.572Z,1009.24
2019-04-05T02:57:52.575Z,1009.25
2019-04-05T02:58:52.545Z,1009.25
2019-04-05T02:59:52.533Z,1009.30
2019-04-05T03:00:52.529Z,1009.26
2019-04-05T03:01:52.513Z,1009.26
2019-04-05T03:02:52.541Z,1009.26
2019-04-05T03:03:52.518Z,1009.29
2019-04-05T03:04:52.480Z,1009.38
2019-04-05T03:05:52.481Z,1009.35
2019-04-05T03:07:02.783Z,1009.33
2019-04-05T03:07:52.455Z,1009.38
2019-04-05T03:08:52.458Z,1009.39
2019-04-05T03:09:52.428Z,1009.37
2019-04-05T03:10:52.440Z,1009.38
2019-04-05T03:11:52.414Z,1009.39
2019-04-05T03:12:52.398Z,1009.34
2019-04-05T03:13:52.429Z,1009.37
2019-04-05T03:14:52.386Z,1009.38
2019-04-05T03:15:52.372Z,1009.33
2019-04-05T03:16:52.360Z,1009.38
2019-04-05T03:17:52.343Z,1009.38
2019-04-05T03:18:52.347Z,1009.39
2019-04-05T03:19:52.375Z,1009.36
2019-04-05T03:20:52.311Z,1009.40
2019-04-05T03:21:52.298Z,1009.42
2019-04-05T03:22:52.290Z,1009.44
2019-04-05T03:23:52.290Z,1009.42
2019-04-05T03:24:52.279Z,1009.43
2019-04-05T03:25:52.371Z,1009.46
2019-04-05T03:26:52.252Z,1009.42
2019-04-05T03:27:52.251Z,1009.43
2019-04-05T03:28:52.233Z,1009.42
2019-04-05T03:29:52.219Z,1009.44
2019-04-05T03:30:52.208Z,1009.50
2019-04-05T03:31:52.237Z,1009.47
2019-04-05T03:32:52.194Z,1009.47
2019-04-05T03:33:52.190Z,1009.45
2019-04-05T03:34:52.166Z,1009.46
2019-04-05T03:35:52.161Z,1009.48
2019-04-05T03:36:52.245Z,1009.53
2019-04-05T03:38:03.443Z,1009.51
2019-04-05T03:38:52.142Z,1009.54
2019-04-05T03:39:52.114Z,1009.51
2019-04-05T03:40:59.079Z,1009.51
2019-04-05T03:41:52.095Z,1009.51
2019-04-05T03:42:52.119Z,1009.50
2019-04-05T03:43:52.100Z,1009.50
2019-04-05T03:44:52.060Z,1009.53
2019-04-05T03:45:52.045Z,1009.51
2019-04-05T03:46:56.814Z,1009.54
2019-04-05T03:47:53.043Z,1009.55
2019-04-05T03:48:52.025Z,1009.60
2019-04-05T03:49:52.012Z,1009.55
2019-04-05T03:50:51.993Z,1009.56
2019-04-05T03:51:51.991Z,1009.59
2019-04-05T03:52:52.015Z,1009.60
2019-04-05T03:53:51.975Z,1009.59
2019-04-05T03:54:51.957Z,1009.58
2019-04-05T03:55:51.950Z,1009.57
2019-04-05T03:56:51.935Z,1009.56
2019-04-05T03:57:51.935Z,1009.62
2019-04-05T03:58:51.920Z,1009.54
2019-04-05T03:59:51.902Z,1009.55
2019-04-05T04:00:51.889Z,1009.60
2019-04-05T04:01:51.883Z,1009.57
2019-04-05T04:02:51.880Z,1009.58
2019-04-05T04:03:51.899Z,1009.61
2019-04-05T04:04:51.856Z,1009.60
2019-04-05T04:05:51.843Z,1009.62
2019-04-05T04:06:51.825Z,1009.59
2019-04-05T04:07:51.828Z,1009.56
2019-04-05T04:08:51.821Z,1009.65
2019-04-05T04:09:51.807Z,1009.60
2019-04-05T04:10:51.790Z,1009.57
2019-04-05T04:12:02.027Z,1009.63
2019-04-05T04:12:51.763Z,1009.60
2019-04-05T04:13:51.755Z,1009.63
2019-04-05T04:14:51.784Z,1009.67
2019-04-05T04:15:51.732Z,1009.67
2019-04-05T04:16:51.725Z,1009.66
2019-04-05T04:17:51.727Z,1009.67
2019-04-05T04:18:51.700Z,1009.67
2019-04-05T04:19:51.693Z,1009.73
2019-04-05T04:20:51.720Z,1009.68
2019-04-05T04:21:51.682Z,1009.74
2019-04-05T04:22:51.665Z,1009.73
2019-04-05T04:23:51.651Z,1009.74
2019-04-05T04:24:51.655Z,1009.72
2019-04-05T04:25:51.627Z,1009.73
2019-04-05T04:26:51.632Z,1009.73
2019-04-05T04:27:51.620Z,1009.78
2019-04-05T04:28:51.703Z,1009.78
2019-04-05T04:29:51.585Z,1009.74
2019-04-05T04:30:51.576Z,1009.76
2019-04-05T04:31:51.600Z,1009.74
2019-04-05T04:32:51.555Z,1009.78
2019-04-05T04:33:51.546Z,1009.77
2019-04-05T04:34:58.519Z,1009.75
2019-04-05T04:35:58.501Z,1009.81
2019-04-05T04:36:51.512Z,1009.79
2019-04-05T04:37:51.506Z,1009.79
2019-04-05T04:38:51.493Z,1009.80
2019-04-05T04:39:51.478Z,1009.81
2019-04-05T04:40:51.474Z,1009.84
2019-04-05T04:41:51.461Z,1009.84
2019-04-05T04:42:51.463Z,1009.82
2019-04-05T04:43:51.439Z,1009.85
2019-04-05T04:44:51.427Z,1009.87
2019-04-05T04:45:51.415Z,1009.86
2019-04-05T04:46:51.406Z,1009.87
2019-04-05T04:47:51.392Z,1009.90
2019-04-05T04:48:51.425Z,1009.90
2019-04-05T04:49:51.371Z,1009.91
2019-04-05T04:50:51.364Z,1009.94
2019-04-05T04:51:51.351Z,1009.89
2019-04-05T04:52:51.345Z,1009.90
2019-04-05T04:53:51.329Z,1009.92
2019-04-05T04:54:51.324Z,1009.88
2019-04-05T04:55:51.309Z,1009.87
2019-04-05T04:56:51.383Z,1009.84
2019-04-05T04:57:51.287Z,1009.84
2019-04-05T04:58:51.278Z,1009.86
2019-04-05T04:59:51.298Z,1009.88
2019-04-05T05:00:51.257Z,1009.89
2019-04-05T05:01:51.239Z,1009.92
2019-04-05T05:02:51.246Z,1009.92
2019-04-05T05:03:51.227Z,1009.90
2019-04-05T05:04:51.213Z,1009.90
2019-04-05T05:05:51.252Z,1009.94
2019-04-05T05:07:01.204Z,1009.94
2019-04-05T05:07:51.179Z,1009.97
2019-04-05T05:08:51.165Z,1009.93
2019-04-05T05:09:51.156Z,1010.00
2019-04-05T05:10:51.143Z,1009.93
2019-04-05T05:11:51.156Z,1010.02
2019-04-05T05:12:51.127Z,1009.97
2019-04-05T05:13:51.115Z,1009.92
2019-04-05T05:14:51.106Z,1009.98
2019-04-05T05:15:51.093Z,1009.98
2019-04-05T05:16:51.087Z,1009.96
2019-04-05T05:17:58.559Z,1010.02
2019-04-05T05:18:52.084Z,1010.00
2019-04-05T05:19:51.051Z,1010.02
2019-04-05T05:20:51.041Z,1010.01
2019-04-05T05:21:51.037Z,1009.99
2019-04-05T05:22:51.018Z,1010.00
2019-04-05T05:23:51.017Z,1010.03
2019-04-05T05:24:51.000Z,1010.04
2019-04-05T05:25:50.991Z,1010.05
2019-04-05T05:26:50.973Z,1010.06
2019-04-05T05:27:50.962Z,1010.07
2019-04-05T05:28:50.969Z,1010.06
2019-04-05T05:29:50.942Z,1010.09
2019-04-05T05:30:50.935Z,1010.10
2019-04-05T05:31:50.935Z,1010.09
2019-04-05T05:32:50.911Z,1010.05
2019-04-05T05:33:50.900Z,1010.08
2019-04-05T05:35:01.394Z,1010.08
2019-04-05T05:35:51.881Z,1010.07
2019-04-05T05:36:50.865Z,1010.07
2019-04-05T05:38:00.700Z,1010.10
2019-04-05T05:38:50.843Z,1010.13
2019-04-05T05:39:50.840Z,1010.15
2019-04-05T05:40:50.866Z,1010.13
2019-04-05T05:41:50.848Z,1010.12
2019-04-05T05:42:50.803Z,1010.22
2019-04-05T05:43:50.793Z,1010.18
2019-04-05T05:44:50.778Z,1010.15
2019-04-05T05:45:50.767Z,1010.19
2019-04-05T05:46:50.800Z,1010.15
2019-04-05T05:47:52.318Z,1010.17
2019-04-05T05:48:50.735Z,1010.23
2019-04-05T05:49:50.724Z,1010.25
2019-04-05T05:50:50.716Z,1010.19
2019-04-05T05:51:50.707Z,1010.26
2019-04-05T05:52:50.707Z,1010.27
2019-04-05T05:53:50.680Z,1010.27
2019-04-05T05:54:50.678Z,1010.29
2019-04-05T05:55:50.660Z,1010.33
2019-04-05T05:56:50.645Z,1010.30
2019-04-05T05:57:54.288Z,1010.25
2019-04-05T05:58:50.667Z,1010.33
2019-04-05T05:59:50.613Z,1010.32
2019-04-05T06:00:50.610Z,1010.34
2019-04-05T06:01:50.595Z,1010.37
2019-04-05T06:02:50.662Z,1010.32
2019-04-05T06:03:50.573Z,1010.35
2019-04-05T06:04:50.586Z,1010.39
2019-04-05T06:05:58.323Z,1010.36
2019-04-05T06:06:51.550Z,1010.35
2019-04-05T06:07:50.530Z,1010.34
2019-04-05T06:09:00.608Z,1010.42
2019-04-05T06:09:50.507Z,1010.44
2019-04-05T06:10:50.505Z,1010.41
2019-04-05T06:11:50.486Z,1010.43
2019-04-05T06:12:50.476Z,1010.43
2019-04-05T06:13:50.472Z,1010.37
2019-04-05T06:14:50.461Z,1010.41
2019-04-05T06:15:50.460Z,1010.40
2019-04-05T06:16:50.433Z,1010.46
2019-04-05T06:17:50.421Z,1010.45
2019-04-05T06:18:50.437Z,1010.40
2019-04-05T06:19:50.403Z,1010.44
2019-04-05T06:20:50.404Z,1010.47
2019-04-05T06:21:50.511Z,1010.53
2019-04-05T06:22:50.387Z,1010.45
2019-04-05T06:23:50.360Z,1010.50
2019-04-05T06:24:50.343Z,1010.50
2019-04-05T06:25:50.337Z,1010.46
2019-04-05T06:26:50.329Z,1010.53
2019-04-05T06:27:50.355Z,1010.49
2019-04-05T06:28:50.336Z,1010.56
2019-04-05T06:29:50.298Z,1010.63
2019-04-05T06:30:50.289Z,1010.58
2019-04-05T06:31:50.290Z,1010.60
2019-04-05T06:32:50.362Z,1010.60
2019-04-05T06:33:50.261Z,1010.63
2019-04-05T06:34:50.236Z,1010.63
2019-04-05T06:35:50.231Z,1010.65
2019-04-05T06:36:51.285Z,1010.67
2019-04-05T06:37:50.259Z,1010.62
2019-04-05T06:38:50.199Z,1010.63
2019-04-05T06:40:00.724Z,1010.65
2019-04-05T06:40:50.172Z,1010.66
2019-04-05T06:41:50.165Z,1010.61
2019-04-05T06:42:50.147Z,1010.64
2019-04-05T06:43:50.179Z,1010.59
2019-04-05T06:44:50.136Z,1010.66
2019-04-05T06:45:50.154Z,1010.68
2019-04-05T06:46:50.172Z,1010.69
2019-04-05T06:47:50.097Z,1010.66
2019-04-05T06:48:50.086Z,1010.73
2019-04-05T06:49:50.116Z,1010.72
2019-04-05T06:50:50.068Z,1010.83
2019-04-05T06:51:50.104Z,1010.73
2019-04-05T06:52:50.052Z,1010.74
2019-04-05T06:53:50.035Z,1010.73
2019-04-05T06:54:50.024Z,1010.79
2019-04-05T06:55:50.040Z,1010.76
2019-04-05T06:56:49.998Z,1010.84
2019-04-05T06:57:49.988Z,1010.79
2019-04-05T06:58:49.982Z,1010.82
2019-04-05T06:59:49.962Z,1010.81
2019-04-05T07:00:56.833Z,1010.85
2019-04-05T07:01:50.956Z,1010.89
2019-04-05T07:02:49.932Z,1010.83
2019-04-05T07:03:49.933Z,1010.88
2019-04-05T07:04:49.905Z,1010.91
2019-04-05T07:05:49.897Z,1010.88
2019-04-05T07:06:50.040Z,1010.89
2019-04-05T07:07:49.878Z,1010.96
2019-04-05T07:08:54.106Z,1010.94
2019-04-05T07:09:49.869Z,1010.92
2019-04-05T07:11:00.589Z,1010.91
2019-04-05T07:11:49.831Z,1010.95
2019-04-05T07:12:49.855Z,1010.90
2019-04-05T07:13:49.822Z,1010.90
2019-04-05T07:14:49.799Z,1010.97
2019-04-05T07:15:49.794Z,1010.96
2019-04-05T07:16:49.806Z,1010.93
2019-04-05T07:17:49.824Z,1010.96
2019-04-05T07:18:49.763Z,1010.98
2019-04-05T07:19:49.764Z,1010.96
2019-04-05T07:20:49.740Z,1010.98
2019-04-05T07:21:49.725Z,1010.99
2019-04-05T07:22:49.707Z,1011.00
2019-04-05T07:23:49.726Z,1011.06
2019-04-05T07:24:49.726Z,1011.01
2019-04-05T07:25:49.675Z,1011.08
2019-04-05T07:26:50.267Z,1011.04
2019-04-05T07:27:49.658Z,1011.08
2019-04-05T07:28:49.691Z,1011.09
2019-04-05T07:29:49.639Z,1011.08
2019-04-05T07:30:49.627Z,1011.10
2019-04-05T07:31:49.613Z,1011.17
2019-04-05T07:32:49.607Z,1011.13
2019-04-05T07:33:49.605Z,1011.18
2019-04-05T07:34:49.589Z,1011.18
2019-04-05T07:35:49.569Z,1011.19
2019-04-05T07:36:49.584Z,1011.22
2019-04-05T07:37:49.553Z,1011.21
2019-04-05T07:38:49.541Z,1011.20
2019-04-05T07:39:49.535Z,1011.18
2019-04-05T07:40:49.558Z,1011.22
2019-04-05T07:42:00.770Z,1011.18
2019-04-05T07:42:49.493Z,1011.21
2019-04-05T07:43:49.480Z,1011.29
2019-04-05T07:44:49.477Z,1011.29
2019-04-05T07:45:49.454Z,1011.23
2019-04-05T07:46:49.482Z,1011.22
2019-04-05T07:47:49.431Z,1011.30
2019-04-05T07:48:49.428Z,1011.28
2019-04-05T07:49:49.438Z,1011.29
2019-04-05T07:50:49.417Z,1011.30
2019-04-05T07:51:49.397Z,1011.32
2019-04-05T07:52:49.391Z,1011.31
2019-04-05T07:53:49.368Z,1011.35
2019-04-05T07:54:49.357Z,1011.38
2019-04-05T07:55:49.357Z,1011.39
2019-04-05T07:56:49.343Z,1011.34
2019-04-05T07:57:49.333Z,1011.40
2019-04-05T07:58:49.322Z,1011.33
2019-04-05T07:59:49.303Z,1011.38
2019-04-05T08:00:49.294Z,1011.37
2019-04-05T08:01:49.298Z,1011.39
2019-04-05T08:02:49.286Z,1011.44
2019-04-05T08:03:49.265Z,1011.47
2019-04-05T08:04:49.247Z,1011.48
2019-04-05T08:05:49.241Z,1011.49
2019-04-05T08:06:49.261Z,1011.51
2019-04-05T08:07:49.240Z,1011.50
2019-04-05T08:08:49.213Z,1011.55
2019-04-05T08:09:49.200Z,1011.60
2019-04-05T08:10:49.189Z,1011.59
2019-04-05T08:11:49.173Z,1011.58
2019-04-05T08:13:00.627Z,1011.55
2019-04-05T08:13:49.148Z,1011.60
2019-04-05T08:14:49.145Z,1011.60
2019-04-05T08:15:49.130Z,1011.65
2019-04-05T08:16:49.129Z,1011.66
2019-04-05T08:17:49.109Z,1011.67
2019-04-05T08:18:57.742Z,1011.69
2019-04-05T08:19:50.107Z,1011.68
2019-04-05T08:20:49.077Z,1011.73
2019-04-05T08:21:49.064Z,1011.71
2019-04-05T08:22:49.059Z,1011.71
2019-04-05T08:23:49.051Z,1011.76
2019-04-05T08:24:49.080Z,1011.72
2019-04-05T08:25:49.027Z,1011.74
2019-04-05T08:26:49.010Z,1011.76
2019-04-05T08:27:48.998Z,1011.83
2019-04-05T08:28:48.992Z,1011.84
2019-04-05T08:29:48.981Z,1011.85
2019-04-05T08:30:49.007Z,1011.89
2019-04-05T08:31:48.958Z,1011.87
2019-04-05T08:32:49.610Z,1011.83
2019-04-05T08:33:48.931Z,1011.88
2019-04-05T08:34:49.582Z,1011.86
2019-04-05T08:35:49.586Z,1011.90
2019-04-05T08:36:48.909Z,1011.94
2019-04-05T08:37:49.048Z,1011.95
2019-04-05T08:38:48.883Z,1011.98
2019-04-05T08:39:49.597Z,1011.99
2019-04-05T08:40:48.898Z,1011.98
2019-04-05T08:41:48.927Z,1012.03
2019-04-05T08:42:49.589Z,1012.00
2019-04-05T08:43:59.489Z,1012.01
2019-04-05T08:44:48.913Z,1012.06
2019-04-05T08:45:48.809Z,1012.06
2019-04-05T08:46:49.157Z,1012.07
2019-04-05T08:47:49.645Z,1012.09
2019-04-05T08:48:48.776Z,1012.06
2019-04-05T08:49:48.786Z,1012.08
2019-04-05T08:50:48.756Z,1012.11
2019-04-05T08:51:48.745Z,1012.13
2019-04-05T08:52:48.807Z,1012.14
2019-04-05T08:53:49.630Z,1012.07
2019-04-05T08:54:48.712Z,1012.11
2019-04-05T08:55:48.706Z,1012.06
2019-04-05T08:56:48.760Z,1012.04
2019-04-05T08:57:48.677Z,1012.08
2019-04-05T08:58:48.780Z,1012.06
2019-04-05T08:59:48.653Z,1012.14
2019-04-05T09:00:48.656Z,1012.11
2019-04-05T09:01:48.636Z,1012.13
2019-04-05T09:02:48.759Z,1012.13
2019-04-05T09:03:48.669Z,1012.15
2019-04-05T09:04:48.628Z,1012.15
2019-04-05T09:05:48.592Z,1012.19
2019-04-05T09:06:48.587Z,1012.18
2019-04-05T09:07:48.572Z,1012.21
2019-04-05T09:08:48.568Z,1012.24
2019-04-05T09:09:48.551Z,1012.25
2019-04-05T09:10:48.587Z,1012.27
2019-04-05T09:11:48.565Z,1012.29
2019-04-05T09:12:48.525Z,1012.32
2019-04-05T09:13:48.516Z,1012.28
2019-04-05T09:14:58.931Z,1012.30
2019-04-05T09:15:48.491Z,1012.33
2019-04-05T09:16:48.485Z,1012.34
2019-04-05T09:17:48.476Z,1012.44
2019-04-05T09:18:49.584Z,1012.37
2019-04-05T09:19:48.446Z,1012.40
2019-04-05T09:20:48.441Z,1012.40
2019-04-05T09:21:48.470Z,1012.43
2019-04-05T09:22:48.421Z,1012.42
2019-04-05T09:23:48.408Z,1012.46
2019-04-05T09:24:48.397Z,1012.41
2019-04-05T09:25:48.383Z,1012.46
2019-04-05T09:26:48.375Z,1012.49
2019-04-05T09:27:48.406Z,1012.45
2019-04-05T09:28:48.362Z,1012.49
2019-04-05T09:29:48.343Z,1012.50
2019-04-05T09:30:48.335Z,1012.49
2019-04-05T09:31:48.320Z,1012.54
2019-04-05T09:32:48.309Z,1012.51
2019-04-05T09:33:48.321Z,1012.52
2019-04-05T09:34:48.291Z,1012.52
2019-04-05T09:35:48.287Z,1012.51
2019-04-05T09:36:48.274Z,1012.53
2019-04-05T09:37:48.264Z,1012.55
2019-04-05T09:38:48.252Z,1012.57
2019-04-05T09:39:48.277Z,1012.59
2019-04-05T09:40:48.227Z,1012.60
2019-04-05T09:41:48.220Z,1012.61
2019-04-05T09:42:48.207Z,1012.58
2019-04-05T09:43:48.194Z,1012.64
2019-04-05T09:44:48.193Z,1012.62
2019-04-05T09:45:58.742Z,1012.62
2019-04-05T09:46:51.017Z,1012.64
2019-04-05T09:47:48.160Z,1012.68
2019-04-05T09:48:48.146Z,1012.64
2019-04-05T09:49:48.146Z,1012.68
2019-04-05T09:50:48.125Z,1012.65
2019-04-05T09:51:48.149Z,1012.68
2019-04-05T09:52:48.110Z,1012.69
2019-04-05T09:53:48.096Z,1012.70
2019-04-05T09:54:48.081Z,1012.69
2019-04-05T09:55:48.079Z,1012.72
2019-04-05T09:56:48.070Z,1012.71
2019-04-05T09:57:48.065Z,1012.71
2019-04-05T09:58:48.042Z,1012.77
2019-04-05T09:59:48.034Z,1012.79
2019-04-05T10:00:48.021Z,1012.81
2019-04-05T10:01:48.058Z,1012.78
2019-04-05T10:02:48.008Z,1012.74
2019-04-05T10:03:47.996Z,1012.87
2019-04-05T10:04:47.987Z,1012.84
2019-04-05T10:05:47.977Z,1012.84
2019-04-05T10:06:47.968Z,1012.85
2019-04-05T10:07:54.941Z,1012.84
2019-04-05T10:08:48.985Z,1012.90
2019-04-05T10:09:50.320Z,1012.87
2019-04-05T10:10:47.923Z,1012.85
2019-04-05T10:11:47.939Z,1012.89
2019-04-05T10:12:47.906Z,1012.87
2019-04-05T10:13:48.001Z,1012.86
2019-04-05T10:14:47.925Z,1012.91
2019-04-05T10:15:47.879Z,1012.88
2019-04-05T10:16:57.825Z,1012.93
2019-04-05T10:17:47.855Z,1012.93
2019-04-05T10:18:47.846Z,1012.92
2019-04-05T10:19:50.085Z,1012.90
2019-04-05T10:20:47.875Z,1012.90
2019-04-05T10:21:47.814Z,1012.95
2019-04-05T10:22:47.810Z,1012.96
2019-04-05T10:23:47.798Z,1012.98
2019-04-05T10:24:47.790Z,1013.00
2019-04-05T10:25:47.782Z,1012.92
2019-04-05T10:26:48.276Z,1012.97
2019-04-05T10:27:47.763Z,1013.03
2019-04-05T10:28:47.755Z,1012.98
2019-04-05T10:29:49.453Z,1013.01
2019-04-05T10:30:47.730Z,1013.06
2019-04-05T10:31:47.719Z,1013.06
2019-04-05T10:32:47.762Z,1013.08
2019-04-05T10:33:47.704Z,1013.12
2019-04-05T10:34:47.697Z,1013.12
2019-04-05T10:35:47.684Z,1013.14
2019-04-05T10:36:47.678Z,1013.10
2019-04-05T10:37:47.704Z,1013.10
2019-04-05T10:38:47.650Z,1013.08
2019-04-05T10:39:47.640Z,1013.11
2019-04-05T10:40:47.637Z,1013.10
2019-04-05T10:41:47.627Z,1013.13
2019-04-05T10:42:47.620Z,1013.09
2019-04-05T10:43:47.616Z,1013.12
2019-04-05T10:44:47.597Z,1013.11
2019-04-05T10:45:47.584Z,1013.14
2019-04-05T10:46:47.583Z,1013.14
2019-04-05T10:47:57.937Z,1013.13
2019-04-05T10:48:47.605Z,1013.13
2019-04-05T10:49:48.249Z,1013.12
2019-04-05T10:50:47.536Z,1013.20
2019-04-05T10:51:47.527Z,1013.25
2019-04-05T10:52:47.520Z,1013.26
2019-04-05T10:53:47.508Z,1013.26
2019-04-05T10:54:47.548Z,1013.28
2019-04-05T10:55:47.490Z,1013.28
2019-04-05T10:56:47.480Z,1013.30
2019-04-05T10:57:47.470Z,1013.30
2019-04-05T10:58:47.458Z,1013.31
2019-04-05T10:59:47.457Z,1013.28
2019-04-05T11:00:47.474Z,1013.23
2019-04-05T11:01:47.448Z,1013.26
2019-04-05T11:02:47.433Z,1013.27
2019-04-05T11:03:47.414Z,1013.25
2019-04-05T11:04:47.400Z,1013.28
2019-04-05T11:05:49.197Z,1013.29
2019-04-05T11:06:47.423Z,1013.26
2019-04-05T11:07:47.371Z,1013.29
2019-04-05T11:08:47.366Z,1013.33
2019-04-05T11:09:47.367Z,1013.32
2019-04-05T11:10:47.358Z,1013.35
2019-04-05T11:11:47.343Z,1013.30
2019-04-05T11:12:49.731Z,1013.38
2019-04-05T11:13:47.323Z,1013.32
2019-04-05T11:14:47.312Z,1013.37
2019-04-05T11:15:47.299Z,1013.34
2019-04-05T11:16:57.751Z,1013.31
2019-04-05T11:17:48.309Z,1013.29
2019-04-05T11:18:57.756Z,1013.32
2019-04-05T11:19:47.264Z,1013.34
2019-04-05T11:20:49.706Z,1013.31
2019-04-05T11:21:48.515Z,1013.34
2019-04-05T11:22:49.989Z,1013.36
2019-04-05T11:23:47.262Z,1013.35
2019-04-05T11:24:47.215Z,1013.37
2019-04-05T11:25:47.202Z,1013.36
2019-04-05T11:26:47.198Z,1013.35
2019-04-05T11:27:47.181Z,1013.37
2019-04-05T11:28:47.183Z,1013.38
2019-04-05T11:29:47.183Z,1013.42
2019-04-05T11:30:47.167Z,1013.40
2019-04-05T11:31:57.010Z,1013.40
2019-04-05T11:32:48.130Z,1013.42
2019-04-05T11:33:47.128Z,1013.43
2019-04-05T11:34:47.115Z,1013.42
2019-04-05T11:35:47.150Z,1013.42
2019-04-05T11:36:47.096Z,1013.43
2019-04-05T11:37:49.965Z,1013.47
2019-04-05T11:38:50.053Z,1013.43
2019-04-05T11:39:48.621Z,1013.42
2019-04-05T11:40:47.065Z,1013.49
2019-04-05T11:41:47.057Z,1013.48
2019-04-05T11:42:47.044Z,1013.49
2019-04-05T11:43:47.033Z,1013.44
2019-04-05T11:44:47.025Z,1013.45
2019-04-05T11:45:48.675Z,1013.43
2019-04-05T11:46:49.161Z,1013.45
2019-04-05T11:47:46.993Z,1013.55
2019-04-05T11:48:46.980Z,1013.52
2019-04-05T11:49:57.018Z,1013.50
2019-04-05T11:50:46.966Z,1013.45
2019-04-05T11:51:46.967Z,1013.48
2019-04-05T11:52:46.952Z,1013.49
2019-04-05T11:53:46.931Z,1013.46
2019-04-05T11:54:46.921Z,1013.48
2019-04-05T11:55:47.081Z,1013.48
2019-04-05T11:56:46.908Z,1013.45
2019-04-05T11:57:46.935Z,1013.47
2019-04-05T11:58:48.664Z,1013.46
2019-04-05T11:59:48.592Z,1013.47
2019-04-05T12:00:46.866Z,1013.46
2019-04-05T12:01:46.856Z,1013.50
2019-04-05T12:02:46.845Z,1013.46
2019-04-05T12:03:46.882Z,1013.47
2019-04-05T12:04:46.834Z,1013.49
2019-04-05T12:05:46.822Z,1013.53